sensor_id;sensor_type;location;lat;lon;timestamp;P1;durP1;ratioP1;P2;durP2;ratioP2
54452;SDS011;40363;52.270;10.546;2023-03-18T00:00:57;4.82;;;2.00;;
54452;SDS011;40363;52.270;10.546;2023-03-18T00:03:25;4.18;;;2.35;;
54452;SDS011;40363;52.270;10.546;2023-03-18T00:06:00;3.40;;;2.13;;
54452;SDS011;40363;52.270;10.546;2023-03-18T00:08:28;4.80;;;2.30;;
54452;SDS011;40363;52.270;10.546;2023-03-18T00:10:56;5.68;;;3.03;;
54452;SDS011;40363;52.270;10.546;2023-03-18T00:13:24;3.95;;;2.28;;
54452;SDS011;40363;52.270;10.546;2023-03-18T00:15:51;4.20;;;2.08;;
54452;SDS011;40363;52.270;10.546;2023-03-18T00:18:19;4.60;;;1.98;;
54452;SDS011;40363;52.270;10.546;2023-03-18T00:20:45;2.70;;;1.73;;
54452;SDS011;40363;52.270;10.546;2023-03-18T00:23:12;5.93;;;2.50;;
54452;SDS011;40363;52.270;10.546;2023-03-18T00:25:38;5.90;;;1.98;;
54452;SDS011;40363;52.270;10.546;2023-03-18T00:28:06;4.85;;;1.83;;
54452;SDS011;40363;52.270;10.546;2023-03-18T00:30:36;3.45;;;2.03;;
54452;SDS011;40363;52.270;10.546;2023-03-18T00:33:03;2.10;;;1.60;;
54452;SDS011;40363;52.270;10.546;2023-03-18T00:35:31;2.55;;;1.95;;
54452;SDS011;40363;52.270;10.546;2023-03-18T00:37:57;4.68;;;2.05;;
54452;SDS011;40363;52.270;10.546;2023-03-18T00:40:24;4.50;;;1.70;;
54452;SDS011;40363;52.270;10.546;2023-03-18T00:42:54;1.92;;;1.50;;
54452;SDS011;40363;52.270;10.546;2023-03-18T00:45:31;4.25;;;2.33;;
54452;SDS011;40363;52.270;10.546;2023-03-18T00:48:00;2.85;;;1.80;;
54452;SDS011;40363;52.270;10.546;2023-03-18T00:50:27;4.60;;;2.28;;
54452;SDS011;40363;52.270;10.546;2023-03-18T00:52:54;7.00;;;2.13;;
54452;SDS011;40363;52.270;10.546;2023-03-18T00:55:21;5.38;;;2.08;;
54452;SDS011;40363;52.270;10.546;2023-03-18T00:57:48;2.30;;;1.80;;
54452;SDS011;40363;52.270;10.546;2023-03-18T01:00:15;3.22;;;2.03;;
54452;SDS011;40363;52.270;10.546;2023-03-18T01:02:43;3.22;;;2.10;;
54452;SDS011;40363;52.270;10.546;2023-03-18T01:05:14;3.42;;;1.98;;
54452;SDS011;40363;52.270;10.546;2023-03-18T01:07:41;3.50;;;2.17;;
54452;SDS011;40363;52.270;10.546;2023-03-18T01:10:08;4.28;;;1.90;;
54452;SDS011;40363;52.270;10.546;2023-03-18T01:12:37;4.25;;;2.47;;
54452;SDS011;40363;52.270;10.546;2023-03-18T01:15:05;5.95;;;1.90;;
54452;SDS011;40363;52.270;10.546;2023-03-18T01:17:34;3.95;;;1.77;;
54452;SDS011;40363;52.270;10.546;2023-03-18T01:20:01;2.08;;;1.35;;
54452;SDS011;40363;52.270;10.546;2023-03-18T01:22:30;2.92;;;1.60;;
54452;SDS011;40363;52.270;10.546;2023-03-18T01:24:57;3.22;;;1.42;;
54452;SDS011;40363;52.270;10.546;2023-03-18T01:27:23;4.13;;;1.27;;
54452;SDS011;40363;52.270;10.546;2023-03-18T01:29:51;3.25;;;1.20;;
54452;SDS011;40363;52.270;10.546;2023-03-18T01:32:17;4.53;;;1.35;;
54452;SDS011;40363;52.270;10.546;2023-03-18T01:34:44;3.80;;;1.83;;
54452;SDS011;40363;52.270;10.546;2023-03-18T01:37:10;3.38;;;1.67;;
54452;SDS011;40363;52.270;10.546;2023-03-18T01:39:39;3.08;;;1.50;;
54452;SDS011;40363;52.270;10.546;2023-03-18T01:42:05;3.08;;;1.50;;
54452;SDS011;40363;52.270;10.546;2023-03-18T01:44:32;3.67;;;1.60;;
54452;SDS011;40363;52.270;10.546;2023-03-18T01:46:59;5.22;;;1.60;;
54452;SDS011;40363;52.270;10.546;2023-03-18T01:49:27;3.65;;;1.35;;
54452;SDS011;40363;52.270;10.546;2023-03-18T01:51:57;2.03;;;1.30;;
54452;SDS011;40363;52.270;10.546;2023-03-18T01:54:31;4.95;;;1.63;;
54452;SDS011;40363;52.270;10.546;2023-03-18T01:57:02;2.78;;;1.60;;
54452;SDS011;40363;52.270;10.546;2023-03-18T01:59:30;3.83;;;1.30;;
54452;SDS011;40363;52.270;10.546;2023-03-18T02:02:01;4.55;;;1.63;;
54452;SDS011;40363;52.270;10.546;2023-03-18T02:04:31;3.10;;;1.38;;
54452;SDS011;40363;52.270;10.546;2023-03-18T02:07:01;2.97;;;1.30;;
54452;SDS011;40363;52.270;10.546;2023-03-18T02:09:28;3.50;;;1.48;;
54452;SDS011;40363;52.270;10.546;2023-03-18T02:11:55;2.70;;;1.38;;
54452;SDS011;40363;52.270;10.546;2023-03-18T02:14:24;4.78;;;1.40;;
54452;SDS011;40363;52.270;10.546;2023-03-18T02:16:52;2.58;;;1.20;;
54452;SDS011;40363;52.270;10.546;2023-03-18T02:19:29;4.03;;;1.38;;
54452;SDS011;40363;52.270;10.546;2023-03-18T02:22:07;2.55;;;1.40;;
54452;SDS011;40363;52.270;10.546;2023-03-18T02:24:51;2.92;;;1.40;;
54452;SDS011;40363;52.270;10.546;2023-03-18T02:27:28;4.15;;;1.50;;
54452;SDS011;40363;52.270;10.546;2023-03-18T02:29:59;2.53;;;1.50;;
54452;SDS011;40363;52.270;10.546;2023-03-18T02:32:28;3.45;;;1.48;;
54452;SDS011;40363;52.270;10.546;2023-03-18T02:34:58;2.90;;;1.45;;
54452;SDS011;40363;52.270;10.546;2023-03-18T02:37:28;2.13;;;1.42;;
54452;SDS011;40363;52.270;10.546;2023-03-18T02:39:57;3.17;;;1.38;;
54452;SDS011;40363;52.270;10.546;2023-03-18T02:42:38;1.75;;;1.23;;
54452;SDS011;40363;52.270;10.546;2023-03-18T02:45:05;1.80;;;1.35;;
54452;SDS011;40363;52.270;10.546;2023-03-18T02:47:39;2.40;;;1.42;;
54452;SDS011;40363;52.270;10.546;2023-03-18T02:50:08;2.17;;;1.05;;
54452;SDS011;40363;52.270;10.546;2023-03-18T02:52:34;3.50;;;1.50;;
54452;SDS011;40363;52.270;10.546;2023-03-18T02:55:02;3.72;;;1.60;;
54452;SDS011;40363;52.270;10.546;2023-03-18T02:57:28;1.73;;;1.05;;
54452;SDS011;40363;52.270;10.546;2023-03-18T02:59:56;3.60;;;1.60;;
54452;SDS011;40363;52.270;10.546;2023-03-18T03:02:23;4.28;;;2.10;;
54452;SDS011;40363;52.270;10.546;2023-03-18T03:04:49;3.63;;;1.58;;
54452;SDS011;40363;52.270;10.546;2023-03-18T03:07:16;1.73;;;1.10;;
54452;SDS011;40363;52.270;10.546;2023-03-18T03:09:43;3.45;;;1.50;;
54452;SDS011;40363;52.270;10.546;2023-03-18T03:12:09;3.60;;;1.65;;
54452;SDS011;40363;52.270;10.546;2023-03-18T03:14:36;2.92;;;1.33;;
54452;SDS011;40363;52.270;10.546;2023-03-18T03:20:25;3.00;;;1.52;;
54452;SDS011;40363;52.270;10.546;2023-03-18T03:22:52;2.03;;;1.42;;
54452;SDS011;40363;52.270;10.546;2023-03-18T03:25:19;3.80;;;2.70;;
54452;SDS011;40363;52.270;10.546;2023-03-18T03:27:46;3.33;;;1.38;;
54452;SDS011;40363;52.270;10.546;2023-03-18T03:30:14;3.25;;;1.55;;
54452;SDS011;40363;52.270;10.546;2023-03-18T03:32:42;4.20;;;2.50;;
54452;SDS011;40363;52.270;10.546;2023-03-18T03:35:11;3.47;;;1.70;;
54452;SDS011;40363;52.270;10.546;2023-03-18T03:37:40;5.72;;;1.63;;
54452;SDS011;40363;52.270;10.546;2023-03-18T03:40:08;3.08;;;1.90;;
54452;SDS011;40363;52.270;10.546;2023-03-18T03:42:36;5.30;;;2.05;;
54452;SDS011;40363;52.270;10.546;2023-03-18T03:45:03;4.05;;;1.98;;
54452;SDS011;40363;52.270;10.546;2023-03-18T03:47:31;3.67;;;1.77;;
54452;SDS011;40363;52.270;10.546;2023-03-18T03:49:58;2.90;;;1.73;;
54452;SDS011;40363;52.270;10.546;2023-03-18T03:52:25;4.28;;;1.80;;
54452;SDS011;40363;52.270;10.546;2023-03-18T03:54:54;6.75;;;2.00;;
54452;SDS011;40363;52.270;10.546;2023-03-18T03:57:20;3.97;;;2.13;;
54452;SDS011;40363;52.270;10.546;2023-03-18T03:59:48;9.95;;;2.67;;
54452;SDS011;40363;52.270;10.546;2023-03-18T04:02:14;4.88;;;2.17;;
54452;SDS011;40363;52.270;10.546;2023-03-18T04:04:41;5.78;;;2.05;;
54452;SDS011;40363;52.270;10.546;2023-03-18T04:07:09;4.03;;;2.03;;
54452;SDS011;40363;52.270;10.546;2023-03-18T04:09:36;7.15;;;2.88;;
54452;SDS011;40363;52.270;10.546;2023-03-18T04:12:04;4.07;;;2.15;;
54452;SDS011;40363;52.270;10.546;2023-03-18T04:14:32;3.88;;;2.03;;
54452;SDS011;40363;52.270;10.546;2023-03-18T04:16:58;4.90;;;2.00;;
54452;SDS011;40363;52.270;10.546;2023-03-18T04:19:25;4.22;;;2.20;;
54452;SDS011;40363;52.270;10.546;2023-03-18T04:21:53;3.72;;;2.22;;
54452;SDS011;40363;52.270;10.546;2023-03-18T04:24:20;5.15;;;2.55;;
54452;SDS011;40363;52.270;10.546;2023-03-18T04:26:47;3.17;;;2.00;;
54452;SDS011;40363;52.270;10.546;2023-03-18T04:29:16;2.92;;;1.70;;
54452;SDS011;40363;52.270;10.546;2023-03-18T04:31:42;3.35;;;1.95;;
54452;SDS011;40363;52.270;10.546;2023-03-18T04:34:09;5.18;;;2.15;;
54452;SDS011;40363;52.270;10.546;2023-03-18T04:36:36;4.00;;;1.95;;
54452;SDS011;40363;52.270;10.546;2023-03-18T04:39:03;2.40;;;1.88;;
54452;SDS011;40363;52.270;10.546;2023-03-18T04:41:30;5.63;;;2.60;;
54452;SDS011;40363;52.270;10.546;2023-03-18T04:43:56;4.53;;;2.22;;
54452;SDS011;40363;52.270;10.546;2023-03-18T04:46:24;6.13;;;2.33;;
54452;SDS011;40363;52.270;10.546;2023-03-18T04:48:54;3.72;;;2.13;;
54452;SDS011;40363;52.270;10.546;2023-03-18T04:51:22;4.63;;;1.90;;
54452;SDS011;40363;52.270;10.546;2023-03-18T04:53:48;4.22;;;2.17;;
54452;SDS011;40363;52.270;10.546;2023-03-18T04:56:15;5.65;;;2.15;;
54452;SDS011;40363;52.270;10.546;2023-03-18T04:58:42;4.20;;;2.67;;
54452;SDS011;40363;52.270;10.546;2023-03-18T05:01:09;6.53;;;2.65;;
54452;SDS011;40363;52.270;10.546;2023-03-18T05:03:38;5.57;;;2.10;;
54452;SDS011;40363;52.270;10.546;2023-03-18T05:06:05;4.50;;;2.03;;
54452;SDS011;40363;52.270;10.546;2023-03-18T05:08:33;3.47;;;2.13;;
54452;SDS011;40363;52.270;10.546;2023-03-18T05:11:00;6.82;;;2.15;;
54452;SDS011;40363;52.270;10.546;2023-03-18T05:13:27;5.35;;;2.05;;
54452;SDS011;40363;52.270;10.546;2023-03-18T05:15:54;4.68;;;2.88;;
54452;SDS011;40363;52.270;10.546;2023-03-18T05:18:20;6.15;;;2.65;;
54452;SDS011;40363;52.270;10.546;2023-03-18T05:20:48;7.28;;;2.40;;
54452;SDS011;40363;52.270;10.546;2023-03-18T05:23:14;5.38;;;2.88;;
54452;SDS011;40363;52.270;10.546;2023-03-18T05:25:41;5.43;;;2.50;;
54452;SDS011;40363;52.270;10.546;2023-03-18T05:28:07;5.13;;;2.60;;
54452;SDS011;40363;52.270;10.546;2023-03-18T05:30:34;6.47;;;2.38;;
54452;SDS011;40363;52.270;10.546;2023-03-18T05:33:03;7.90;;;2.47;;
54452;SDS011;40363;52.270;10.546;2023-03-18T05:35:29;5.55;;;2.47;;
54452;SDS011;40363;52.270;10.546;2023-03-18T05:37:57;7.18;;;2.53;;
54452;SDS011;40363;52.270;10.546;2023-03-18T05:40:24;7.07;;;2.60;;
54452;SDS011;40363;52.270;10.546;2023-03-18T05:42:50;5.63;;;2.75;;
54452;SDS011;40363;52.270;10.546;2023-03-18T05:45:17;5.78;;;2.25;;
54452;SDS011;40363;52.270;10.546;2023-03-18T05:47:44;3.03;;;2.42;;
54452;SDS011;40363;52.270;10.546;2023-03-18T05:50:11;6.53;;;2.65;;
54452;SDS011;40363;52.270;10.546;2023-03-18T05:52:38;6.32;;;3.08;;
54452;SDS011;40363;52.270;10.546;2023-03-18T05:55:06;4.93;;;2.20;;
54452;SDS011;40363;52.270;10.546;2023-03-18T05:57:33;3.60;;;2.15;;
54452;SDS011;40363;52.270;10.546;2023-03-18T05:59:59;4.75;;;2.13;;
54452;SDS011;40363;52.270;10.546;2023-03-18T06:02:27;5.38;;;2.33;;
54452;SDS011;40363;52.270;10.546;2023-03-18T06:04:53;5.65;;;2.55;;
54452;SDS011;40363;52.270;10.546;2023-03-18T06:07:20;3.70;;;2.60;;
54452;SDS011;40363;52.270;10.546;2023-03-18T06:09:46;5.75;;;2.65;;
54452;SDS011;40363;52.270;10.546;2023-03-18T06:12:15;4.35;;;2.50;;
54452;SDS011;40363;52.270;10.546;2023-03-18T06:14:44;3.88;;;2.40;;
54452;SDS011;40363;52.270;10.546;2023-03-18T06:17:10;5.53;;;2.55;;
54452;SDS011;40363;52.270;10.546;2023-03-18T06:19:38;5.15;;;2.50;;
54452;SDS011;40363;52.270;10.546;2023-03-18T06:22:04;5.10;;;2.72;;
54452;SDS011;40363;52.270;10.546;2023-03-18T06:24:31;6.07;;;2.55;;
54452;SDS011;40363;52.270;10.546;2023-03-18T06:26:57;5.88;;;2.60;;
54452;SDS011;40363;52.270;10.546;2023-03-18T06:29:25;4.18;;;2.38;;
54452;SDS011;40363;52.270;10.546;2023-03-18T06:31:52;4.53;;;2.30;;
54452;SDS011;40363;52.270;10.546;2023-03-18T06:34:18;6.05;;;2.45;;
54452;SDS011;40363;52.270;10.546;2023-03-18T06:36:45;6.68;;;3.05;;
54452;SDS011;40363;52.270;10.546;2023-03-18T06:41:39;4.15;;;2.47;;
54452;SDS011;40363;52.270;10.546;2023-03-18T06:44:05;6.65;;;2.47;;
54452;SDS011;40363;52.270;10.546;2023-03-18T06:46:33;6.88;;;2.42;;
54452;SDS011;40363;52.270;10.546;2023-03-18T06:49:00;5.05;;;2.95;;
54452;SDS011;40363;52.270;10.546;2023-03-18T06:51:26;7.70;;;2.72;;
54452;SDS011;40363;52.270;10.546;2023-03-18T06:53:53;5.75;;;2.10;;
54452;SDS011;40363;52.270;10.546;2023-03-18T06:56:20;4.38;;;2.70;;
54452;SDS011;40363;52.270;10.546;2023-03-18T06:58:47;3.88;;;1.80;;
54452;SDS011;40363;52.270;10.546;2023-03-18T07:01:14;3.85;;;2.20;;
54452;SDS011;40363;52.270;10.546;2023-03-18T07:03:42;3.40;;;2.13;;
54452;SDS011;40363;52.270;10.546;2023-03-18T07:06:09;5.97;;;2.20;;
54452;SDS011;40363;52.270;10.546;2023-03-18T07:08:36;5.78;;;2.65;;
54452;SDS011;40363;52.270;10.546;2023-03-18T07:11:06;6.63;;;2.40;;
54452;SDS011;40363;52.270;10.546;2023-03-18T07:13:32;4.70;;;2.00;;
54452;SDS011;40363;52.270;10.546;2023-03-18T07:15:59;5.35;;;2.17;;
54452;SDS011;40363;52.270;10.546;2023-03-18T07:18:26;4.75;;;2.05;;
54452;SDS011;40363;52.270;10.546;2023-03-18T07:20:54;5.78;;;2.67;;
54452;SDS011;40363;52.270;10.546;2023-03-18T07:23:21;7.88;;;2.80;;
54452;SDS011;40363;52.270;10.546;2023-03-18T07:25:47;5.43;;;2.60;;
54452;SDS011;40363;52.270;10.546;2023-03-18T07:28:14;2.90;;;1.98;;
54452;SDS011;40363;52.270;10.546;2023-03-18T07:30:40;3.55;;;2.00;;
54452;SDS011;40363;52.270;10.546;2023-03-18T07:33:07;8.23;;;2.58;;
54452;SDS011;40363;52.270;10.546;2023-03-18T07:35:34;4.45;;;2.25;;
54452;SDS011;40363;52.270;10.546;2023-03-18T07:38:03;5.50;;;2.30;;
54452;SDS011;40363;52.270;10.546;2023-03-18T07:40:29;6.40;;;3.05;;
54452;SDS011;40363;52.270;10.546;2023-03-18T07:42:56;5.75;;;2.72;;
54452;SDS011;40363;52.270;10.546;2023-03-18T07:45:23;5.45;;;2.80;;
54452;SDS011;40363;52.270;10.546;2023-03-18T07:47:49;4.53;;;2.72;;
54452;SDS011;40363;52.270;10.546;2023-03-18T07:50:16;4.70;;;2.80;;
54452;SDS011;40363;52.270;10.546;2023-03-18T07:52:42;4.43;;;2.72;;
54452;SDS011;40363;52.270;10.546;2023-03-18T07:55:11;4.25;;;2.65;;
54452;SDS011;40363;52.270;10.546;2023-03-18T07:57:38;4.85;;;2.53;;
54452;SDS011;40363;52.270;10.546;2023-03-18T08:00:05;4.63;;;2.45;;
54452;SDS011;40363;52.270;10.546;2023-03-18T08:02:34;4.25;;;2.50;;
54452;SDS011;40363;52.270;10.546;2023-03-18T08:05:01;6.63;;;2.70;;
54452;SDS011;40363;52.270;10.546;2023-03-18T08:07:27;5.03;;;2.22;;
54452;SDS011;40363;52.270;10.546;2023-03-18T08:09:54;2.55;;;2.20;;
54452;SDS011;40363;52.270;10.546;2023-03-18T08:12:22;4.60;;;2.10;;
54452;SDS011;40363;52.270;10.546;2023-03-18T08:14:49;2.75;;;1.77;;
54452;SDS011;40363;52.270;10.546;2023-03-18T08:17:16;3.67;;;2.00;;
54452;SDS011;40363;52.270;10.546;2023-03-18T08:19:43;2.95;;;1.45;;
54452;SDS011;40363;52.270;10.546;2023-03-18T08:22:11;3.38;;;1.48;;
54452;SDS011;40363;52.270;10.546;2023-03-18T08:24:38;2.67;;;1.50;;
54452;SDS011;40363;52.270;10.546;2023-03-18T08:27:05;3.58;;;1.90;;
54452;SDS011;40363;52.270;10.546;2023-03-18T08:29:33;2.90;;;1.70;;
54452;SDS011;40363;52.270;10.546;2023-03-18T08:31:59;3.50;;;1.45;;
54452;SDS011;40363;52.270;10.546;2023-03-18T08:34:26;2.53;;;1.42;;
54452;SDS011;40363;52.270;10.546;2023-03-18T08:36:53;3.83;;;1.30;;
54452;SDS011;40363;52.270;10.546;2023-03-18T08:39:20;2.60;;;1.30;;
54452;SDS011;40363;52.270;10.546;2023-03-18T08:41:46;2.17;;;1.50;;
54452;SDS011;40363;52.270;10.546;2023-03-18T08:44:13;3.72;;;1.50;;
54452;SDS011;40363;52.270;10.546;2023-03-18T08:46:41;4.05;;;1.40;;
54452;SDS011;40363;52.270;10.546;2023-03-18T08:49:08;2.95;;;1.70;;
54452;SDS011;40363;52.270;10.546;2023-03-18T08:51:36;2.53;;;1.67;;
54452;SDS011;40363;52.270;10.546;2023-03-18T08:54:03;4.78;;;2.00;;
54452;SDS011;40363;52.270;10.546;2023-03-18T08:56:30;3.30;;;1.80;;
54452;SDS011;40363;52.270;10.546;2023-03-18T08:58:58;3.75;;;1.58;;
54452;SDS011;40363;52.270;10.546;2023-03-18T09:01:25;4.82;;;2.22;;
54452;SDS011;40363;52.270;10.546;2023-03-18T09:03:52;5.38;;;1.65;;
54452;SDS011;40363;52.270;10.546;2023-03-18T09:06:21;3.58;;;1.83;;
54452;SDS011;40363;52.270;10.546;2023-03-18T09:08:48;3.35;;;1.70;;
54452;SDS011;40363;52.270;10.546;2023-03-18T09:11:15;4.43;;;1.70;;
54452;SDS011;40363;52.270;10.546;2023-03-18T09:13:42;4.10;;;1.58;;
54452;SDS011;40363;52.270;10.546;2023-03-18T09:16:09;3.72;;;2.17;;
54452;SDS011;40363;52.270;10.546;2023-03-18T09:18:36;5.47;;;2.10;;
54452;SDS011;40363;52.270;10.546;2023-03-18T09:21:05;3.30;;;1.80;;
54452;SDS011;40363;52.270;10.546;2023-03-18T09:23:32;7.60;;;2.03;;
54452;SDS011;40363;52.270;10.546;2023-03-18T09:25:59;4.85;;;2.28;;
54452;SDS011;40363;52.270;10.546;2023-03-18T09:28:26;6.47;;;2.10;;
54452;SDS011;40363;52.270;10.546;2023-03-18T09:30:52;3.83;;;2.33;;
54452;SDS011;40363;52.270;10.546;2023-03-18T09:33:19;4.70;;;2.53;;
54452;SDS011;40363;52.270;10.546;2023-03-18T09:35:46;4.35;;;2.42;;
54452;SDS011;40363;52.270;10.546;2023-03-18T09:38:25;4.00;;;2.65;;
54452;SDS011;40363;52.270;10.546;2023-03-18T09:40:59;5.43;;;2.72;;
54452;SDS011;40363;52.270;10.546;2023-03-18T09:46:24;4.88;;;2.60;;
54452;SDS011;40363;52.270;10.546;2023-03-18T09:51:54;9.52;;;3.67;;
54452;SDS011;40363;52.270;10.546;2023-03-18T09:54:33;7.97;;;3.33;;
54452;SDS011;40363;52.270;10.546;2023-03-18T09:57:21;5.32;;;2.97;;
54452;SDS011;40363;52.270;10.546;2023-03-18T09:59:51;5.30;;;3.40;;
54452;SDS011;40363;52.270;10.546;2023-03-18T10:02:21;5.00;;;3.65;;
54452;SDS011;40363;52.270;10.546;2023-03-18T10:04:51;5.82;;;3.40;;
54452;SDS011;40363;52.270;10.546;2023-03-18T10:07:21;7.00;;;4.00;;
54452;SDS011;40363;52.270;10.546;2023-03-18T10:09:55;5.38;;;3.20;;
54452;SDS011;40363;52.270;10.546;2023-03-18T10:12:28;6.35;;;3.50;;
54452;SDS011;40363;52.270;10.546;2023-03-18T10:15:00;5.57;;;3.45;;
54452;SDS011;40363;52.270;10.546;2023-03-18T10:17:38;6.70;;;3.85;;
54452;SDS011;40363;52.270;10.546;2023-03-18T10:20:12;9.43;;;4.47;;
54452;SDS011;40363;52.270;10.546;2023-03-18T10:22:56;7.78;;;3.17;;
54452;SDS011;40363;52.270;10.546;2023-03-18T10:25:33;8.50;;;3.53;;
54452;SDS011;40363;52.270;10.546;2023-03-18T10:28:06;8.43;;;3.80;;
54452;SDS011;40363;52.270;10.546;2023-03-18T10:30:48;7.35;;;3.53;;
54452;SDS011;40363;52.270;10.546;2023-03-18T10:33:25;10.23;;;3.33;;
54452;SDS011;40363;52.270;10.546;2023-03-18T10:36:03;5.75;;;2.92;;
54452;SDS011;40363;52.270;10.546;2023-03-18T10:38:35;6.38;;;2.83;;
54452;SDS011;40363;52.270;10.546;2023-03-18T10:41:09;8.07;;;3.10;;
54452;SDS011;40363;52.270;10.546;2023-03-18T10:43:41;6.60;;;3.47;;
54452;SDS011;40363;52.270;10.546;2023-03-18T10:46:13;3.80;;;2.17;;
54452;SDS011;40363;52.270;10.546;2023-03-18T10:48:41;4.55;;;2.28;;
54452;SDS011;40363;52.270;10.546;2023-03-18T10:51:11;6.00;;;2.53;;
54452;SDS011;40363;52.270;10.546;2023-03-18T10:53:48;3.65;;;2.10;;
54452;SDS011;40363;52.270;10.546;2023-03-18T10:56:22;5.55;;;3.13;;
54452;SDS011;40363;52.270;10.546;2023-03-18T10:58:49;4.05;;;2.15;;
54452;SDS011;40363;52.270;10.546;2023-03-18T11:01:17;3.53;;;2.28;;
54452;SDS011;40363;52.270;10.546;2023-03-18T11:03:48;3.92;;;1.95;;
54452;SDS011;40363;52.270;10.546;2023-03-18T11:06:18;3.67;;;2.00;;
54452;SDS011;40363;52.270;10.546;2023-03-18T11:08:49;3.08;;;2.03;;
54452;SDS011;40363;52.270;10.546;2023-03-18T11:11:28;4.10;;;2.78;;
54452;SDS011;40363;52.270;10.546;2023-03-18T11:13:57;7.95;;;2.28;;
54452;SDS011;40363;52.270;10.546;2023-03-18T11:16:27;5.28;;;2.30;;
54452;SDS011;40363;52.270;10.546;2023-03-18T11:18:58;4.10;;;2.00;;
54452;SDS011;40363;52.270;10.546;2023-03-18T11:21:30;3.05;;;2.22;;
54452;SDS011;40363;52.270;10.546;2023-03-18T11:23:58;4.65;;;2.08;;
54452;SDS011;40363;52.270;10.546;2023-03-18T11:26:47;3.20;;;2.10;;
54452;SDS011;40363;52.270;10.546;2023-03-18T11:29:20;3.53;;;2.20;;
54452;SDS011;40363;52.270;10.546;2023-03-18T11:31:50;4.00;;;2.20;;
54452;SDS011;40363;52.270;10.546;2023-03-18T11:34:22;3.92;;;2.28;;
54452;SDS011;40363;52.270;10.546;2023-03-18T11:36:53;3.22;;;2.20;;
54452;SDS011;40363;52.270;10.546;2023-03-18T11:39:23;5.20;;;2.05;;
54452;SDS011;40363;52.270;10.546;2023-03-18T11:41:52;4.82;;;2.05;;
54452;SDS011;40363;52.270;10.546;2023-03-18T11:44:23;3.70;;;2.03;;
54452;SDS011;40363;52.270;10.546;2023-03-18T11:46:54;5.28;;;2.17;;
54452;SDS011;40363;52.270;10.546;2023-03-18T11:49:27;4.32;;;1.90;;
54452;SDS011;40363;52.270;10.546;2023-03-18T11:51:58;3.63;;;1.83;;
54452;SDS011;40363;52.270;10.546;2023-03-18T11:55:01;3.97;;;2.05;;
54452;SDS011;40363;52.270;10.546;2023-03-18T11:57:41;3.15;;;1.70;;
54452;SDS011;40363;52.270;10.546;2023-03-18T12:00:23;4.15;;;2.05;;
54452;SDS011;40363;52.270;10.546;2023-03-18T12:05:55;2.35;;;1.45;;
54452;SDS011;40363;52.270;10.546;2023-03-18T12:08:32;2.90;;;1.95;;
54452;SDS011;40363;52.270;10.546;2023-03-18T12:11:10;4.25;;;1.58;;
54452;SDS011;40363;52.270;10.546;2023-03-18T12:13:46;2.10;;;1.73;;
54452;SDS011;40363;52.270;10.546;2023-03-18T12:16:23;3.67;;;1.77;;
54452;SDS011;40363;52.270;10.546;2023-03-18T12:19:08;3.00;;;1.83;;
54452;SDS011;40363;52.270;10.546;2023-03-18T12:21:59;3.13;;;2.00;;
54452;SDS011;40363;52.270;10.546;2023-03-18T12:24:43;3.70;;;1.55;;
54452;SDS011;40363;52.270;10.546;2023-03-18T12:27:24;4.43;;;1.58;;
54452;SDS011;40363;52.270;10.546;2023-03-18T12:30:05;2.80;;;1.83;;
54452;SDS011;40363;52.270;10.546;2023-03-18T12:32:45;1.60;;;1.05;;
54452;SDS011;40363;52.270;10.546;2023-03-18T12:35:23;2.78;;;1.58;;
54452;SDS011;40363;52.270;10.546;2023-03-18T12:38:09;2.13;;;1.20;;
54452;SDS011;40363;52.270;10.546;2023-03-18T12:41:05;5.20;;;1.77;;
54452;SDS011;40363;52.270;10.546;2023-03-18T12:43:42;2.00;;;1.33;;
54452;SDS011;40363;52.270;10.546;2023-03-18T12:46:22;1.70;;;1.23;;
54452;SDS011;40363;52.270;10.546;2023-03-18T12:48:53;2.55;;;1.63;;
54452;SDS011;40363;52.270;10.546;2023-03-18T12:51:27;2.53;;;1.27;;
54452;SDS011;40363;52.270;10.546;2023-03-18T12:54:02;1.85;;;1.20;;
54452;SDS011;40363;52.270;10.546;2023-03-18T12:56:37;4.68;;;1.25;;
54452;SDS011;40363;52.270;10.546;2023-03-18T12:59:10;3.35;;;0.98;;
54452;SDS011;40363;52.270;10.546;2023-03-18T13:01:45;2.88;;;1.42;;
54452;SDS011;40363;52.270;10.546;2023-03-18T13:04:18;1.52;;;1.10;;
54452;SDS011;40363;52.270;10.546;2023-03-18T13:06:50;1.58;;;1.10;;
54452;SDS011;40363;52.270;10.546;2023-03-18T13:09:23;2.65;;;1.25;;
54452;SDS011;40363;52.270;10.546;2023-03-18T13:11:58;1.13;;;1.00;;
54452;SDS011;40363;52.270;10.546;2023-03-18T13:14:31;2.05;;;1.10;;
54452;SDS011;40363;52.270;10.546;2023-03-18T13:17:10;1.75;;;1.35;;
54452;SDS011;40363;52.270;10.546;2023-03-18T13:19:41;2.83;;;1.77;;
54452;SDS011;40363;52.270;10.546;2023-03-18T13:22:13;3.67;;;1.15;;
54452;SDS011;40363;52.270;10.546;2023-03-18T13:24:57;1.35;;;0.98;;
54452;SDS011;40363;52.270;10.546;2023-03-18T13:27:56;2.10;;;1.20;;
54452;SDS011;40363;52.270;10.546;2023-03-18T13:30:36;3.42;;;1.30;;
54452;SDS011;40363;52.270;10.546;2023-03-18T13:33:23;3.08;;;1.42;;
54452;SDS011;40363;52.270;10.546;2023-03-18T13:36:18;3.42;;;1.23;;
54452;SDS011;40363;52.270;10.546;2023-03-18T13:39:05;4.25;;;1.85;;
54452;SDS011;40363;52.270;10.546;2023-03-18T13:41:46;4.90;;;1.98;;
54452;SDS011;40363;52.270;10.546;2023-03-18T13:44:30;2.83;;;1.38;;
54452;SDS011;40363;52.270;10.546;2023-03-18T13:47:02;3.33;;;1.20;;
54452;SDS011;40363;52.270;10.546;2023-03-18T13:49:32;3.28;;;1.80;;
54452;SDS011;40363;52.270;10.546;2023-03-18T13:52:01;2.08;;;1.65;;
54452;SDS011;40363;52.270;10.546;2023-03-18T13:54:31;3.25;;;1.23;;
54452;SDS011;40363;52.270;10.546;2023-03-18T13:57:14;3.05;;;1.08;;
54452;SDS011;40363;52.270;10.546;2023-03-18T13:59:45;2.70;;;1.13;;
54452;SDS011;40363;52.270;10.546;2023-03-18T14:02:40;4.13;;;2.03;;
54452;SDS011;40363;52.270;10.546;2023-03-18T14:17:19;1.13;;;0.90;;
54452;SDS011;40363;52.270;10.546;2023-03-18T14:19:52;2.53;;;1.63;;
54452;SDS011;40363;52.270;10.546;2023-03-18T14:22:22;2.50;;;1.30;;
54452;SDS011;40363;52.270;10.546;2023-03-18T14:25:10;2.83;;;1.50;;
54452;SDS011;40363;52.270;10.546;2023-03-18T14:27:46;3.05;;;1.27;;
54452;SDS011;40363;52.270;10.546;2023-03-18T14:33:29;1.80;;;1.23;;
54452;SDS011;40363;52.270;10.546;2023-03-18T14:35:59;1.95;;;1.45;;
54452;SDS011;40363;52.270;10.546;2023-03-18T14:38:31;2.83;;;1.75;;
54452;SDS011;40363;52.270;10.546;2023-03-18T14:41:03;3.75;;;1.85;;
54452;SDS011;40363;52.270;10.546;2023-03-18T14:43:39;1.83;;;1.27;;
54452;SDS011;40363;52.270;10.546;2023-03-18T14:46:13;2.80;;;1.65;;
54452;SDS011;40363;52.270;10.546;2023-03-18T14:48:43;2.58;;;1.50;;
54452;SDS011;40363;52.270;10.546;2023-03-18T14:51:12;3.30;;;1.60;;
54452;SDS011;40363;52.270;10.546;2023-03-18T14:53:43;3.33;;;1.40;;
54452;SDS011;40363;52.270;10.546;2023-03-18T14:56:17;2.92;;;1.45;;
54452;SDS011;40363;52.270;10.546;2023-03-18T14:58:45;2.25;;;1.60;;
54452;SDS011;40363;52.270;10.546;2023-03-18T15:01:15;3.22;;;1.58;;
54452;SDS011;40363;52.270;10.546;2023-03-18T15:03:42;2.10;;;1.40;;
54452;SDS011;40363;52.270;10.546;2023-03-18T15:06:14;1.50;;;1.40;;
54452;SDS011;40363;52.270;10.546;2023-03-18T15:08:48;2.50;;;1.20;;
54452;SDS011;40363;52.270;10.546;2023-03-18T15:11:17;2.45;;;1.48;;
54452;SDS011;40363;52.270;10.546;2023-03-18T15:13:46;1.65;;;1.17;;
54452;SDS011;40363;52.270;10.546;2023-03-18T15:16:18;1.98;;;1.40;;
54452;SDS011;40363;52.270;10.546;2023-03-18T15:18:45;3.67;;;1.40;;
54452;SDS011;40363;52.270;10.546;2023-03-18T15:21:18;4.35;;;1.42;;